Clear Sky Current Weather (METAR) For London Heathrow Airport

All times on the weather descriptions are local

Observed at 12:50 - (27 mins ago)

Clear Sky

25°C

Clear Sky
Clouds:
Wind: 130° at 06 knots, varying from 090° to 170
Visibility: Greater than 10km
QNH: 1024
Dew Point: 8°C
Runway in Use: Likely Runways 09L/R

Sunrise Today: 04:48
Sunset Today: 21:23

Forecast Weather (TAF) For London Heathrow Airport

Issued at 01:00 - (28 days ago)


Runway in Use: Likely Runways 27L/R

Forecast valid until 01:00 on Friday

METAR/TAF RAW METAR / TAF

EGLL 031150Z 13006KT 090V170 CAVOK 25/08 Q1024 NOSIG

Weather Widget

Put weather from any of our airports on your website with our weather widget.

Find Another Search

Airport Search


Please Wait Please Wait - Loading
Close
Close

Login

Username:

Password:

Remember Me:

Remember me on this computer

Forgotten your password? Get a reset password sent to your registered e-mail address

Close

User Private Message

Subject:

Message: